createdAt,value
2023-04-21T00:01:08.419Z,32.65
2023-04-21T00:03:38.305Z,30.60
2023-04-21T00:06:09.500Z,28.98
2023-04-21T00:08:42.114Z,19.47
2023-04-21T00:11:09.085Z,17.00
2023-04-21T00:13:36.235Z,15.85
2023-04-21T00:16:02.914Z,16.23
2023-04-21T00:18:29.407Z,18.97
2023-04-21T00:20:56.253Z,17.75
2023-04-21T00:23:22.681Z,18.73
2023-04-21T00:25:49.010Z,20.92
2023-04-21T00:28:15.735Z,18.63
2023-04-21T00:30:42.048Z,20.97
2023-04-21T00:33:08.378Z,20.05
2023-04-21T00:35:34.683Z,20.37
2023-04-21T00:38:01.137Z,21.80
2023-04-21T00:40:27.542Z,22.30
2023-04-21T00:42:53.924Z,19.27
2023-04-21T00:45:20.246Z,22.93
2023-04-21T00:47:46.606Z,24.20
2023-04-21T00:50:13.177Z,18.35
2023-04-21T00:52:40.487Z,19.77
2023-04-21T00:55:07.033Z,19.40
2023-04-21T00:57:35.785Z,20.80
2023-04-21T01:00:03.077Z,20.17
2023-04-21T01:02:29.478Z,19.53
2023-04-21T01:04:55.908Z,19.70
2023-04-21T01:07:22.200Z,20.43
2023-04-21T01:09:48.499Z,20.87
2023-04-21T01:12:14.951Z,20.83
2023-04-21T01:14:41.350Z,18.87
2023-04-21T01:17:08.652Z,19.37
2023-04-21T01:19:36.075Z,20.57
2023-04-21T01:22:12.214Z,20.10
2023-04-21T01:24:40.003Z,20.57
2023-04-21T01:27:18.671Z,19.03
2023-04-21T01:29:46.830Z,20.17
2023-04-21T01:32:14.855Z,20.53
2023-04-21T01:34:41.692Z,21.27
2023-04-21T01:37:09.165Z,19.73
2023-04-21T01:39:38.099Z,21.33
2023-04-21T01:42:04.480Z,19.67
2023-04-21T01:44:30.818Z,18.40
2023-04-21T01:46:57.214Z,39.47
2023-04-21T01:49:23.549Z,28.23
2023-04-21T01:51:49.849Z,30.30
2023-04-21T01:54:16.165Z,50.57
2023-04-21T01:56:42.540Z,33.40
2023-04-21T01:59:08.895Z,40.40
2023-04-21T02:01:36.199Z,32.90
2023-04-21T02:04:03.777Z,29.77
2023-04-21T02:06:31.395Z,19.30
2023-04-21T02:08:58.342Z,21.53
2023-04-21T02:11:25.319Z,19.67
2023-04-21T02:13:55.315Z,20.17
2023-04-21T02:16:26.084Z,19.00
2023-04-21T02:18:53.737Z,18.43
2023-04-21T02:21:21.573Z,20.00
2023-04-21T02:23:47.913Z,21.60
2023-04-21T02:26:14.210Z,19.93
2023-04-21T02:28:40.556Z,17.67
2023-04-21T02:31:07.086Z,19.77
2023-04-21T02:33:33.493Z,19.57
2023-04-21T02:35:59.773Z,19.17
2023-04-21T02:38:26.069Z,18.27
2023-04-21T02:40:52.380Z,21.13
2023-04-21T02:43:18.775Z,20.00
2023-04-21T02:45:45.981Z,21.90
2023-04-21T02:48:12.362Z,20.00
2023-04-21T02:50:39.927Z,21.10
2023-04-21T02:53:06.451Z,19.93
2023-04-21T02:55:33.047Z,21.50
2023-04-21T02:57:59.342Z,23.90
2023-04-21T03:00:25.824Z,22.60
2023-04-21T03:02:53.448Z,22.50
2023-04-21T03:05:20.104Z,19.20
2023-04-21T03:07:46.510Z,21.70
2023-04-21T03:10:12.841Z,19.53
2023-04-21T03:12:39.136Z,23.63
2023-04-21T03:15:05.729Z,23.87
2023-04-21T03:17:33.316Z,22.17
2023-04-21T03:19:59.806Z,21.43
2023-04-21T03:22:26.153Z,22.80
2023-04-21T03:24:52.434Z,25.40
2023-04-21T03:27:18.755Z,23.60
2023-04-21T03:29:45.058Z,25.20
2023-04-21T03:32:11.382Z,24.43
2023-04-21T03:34:37.733Z,23.97
2023-04-21T03:37:04.073Z,24.33
2023-04-21T03:39:30.726Z,26.20
2023-04-21T03:41:57.801Z,23.53
2023-04-21T03:44:28.707Z,22.27
2023-04-21T03:46:55.379Z,25.63
2023-04-21T03:49:21.948Z,23.53
2023-04-21T03:51:48.338Z,23.63
2023-04-21T03:54:14.655Z,24.70
2023-04-21T03:56:41.004Z,27.50
2023-04-21T03:59:07.341Z,24.40
2023-04-21T04:01:34.243Z,24.70
2023-04-21T04:04:00.717Z,23.83
2023-04-21T04:06:28.444Z,24.87
2023-04-21T04:08:54.840Z,25.27
2023-04-21T04:11:21.297Z,23.33
2023-04-21T04:13:47.584Z,24.63
2023-04-21T04:16:13.922Z,25.67
2023-04-21T04:18:40.288Z,25.57
2023-04-21T04:21:07.477Z,24.10
2023-04-21T04:23:34.217Z,26.17
2023-04-21T04:26:01.664Z,24.17
2023-04-21T04:28:28.191Z,27.13
2023-04-21T04:30:55.330Z,25.80
2023-04-21T04:33:21.662Z,25.73
2023-04-21T04:35:47.987Z,24.10
2023-04-21T04:38:17.116Z,34.90
2023-04-21T04:40:43.509Z,30.80
2023-04-21T04:43:10.685Z,33.30
2023-04-21T04:45:37.458Z,31.30
2023-04-21T04:48:04.026Z,30.53
2023-04-21T04:50:30.728Z,27.23
2023-04-21T04:52:57.577Z,34.17
2023-04-21T04:55:23.989Z,33.00
2023-04-21T04:57:50.379Z,39.17
2023-04-21T05:00:17.237Z,29.83
2023-04-21T05:02:43.677Z,41.20
2023-04-21T05:05:10.246Z,35.60
2023-04-21T05:07:36.928Z,36.63
2023-04-21T05:10:04.525Z,44.90
2023-04-21T05:12:32.216Z,40.67
2023-04-21T05:14:58.522Z,42.87
2023-04-21T05:17:24.842Z,39.47
2023-04-21T05:19:51.414Z,43.47
2023-04-21T05:22:17.724Z,38.83
2023-04-21T05:24:44.108Z,37.97
2023-04-21T05:27:10.408Z,35.97
2023-04-21T05:29:36.707Z,37.47
2023-04-21T05:32:03.140Z,37.07
2023-04-21T05:34:29.538Z,46.50
2023-04-21T05:36:55.868Z,48.87
2023-04-21T05:39:22.232Z,40.83
2023-04-21T05:41:48.527Z,41.30
2023-04-21T05:44:16.555Z,45.77
2023-04-21T05:46:42.956Z,44.53
2023-04-21T05:49:09.373Z,40.20
2023-04-21T05:51:35.684Z,56.40
2023-04-21T05:54:01.970Z,48.80
2023-04-21T05:56:28.304Z,60.43
2023-04-21T05:58:54.616Z,75.90
2023-04-21T06:01:20.949Z,46.50
2023-04-21T06:03:50.216Z,14.47
2023-04-21T06:06:17.572Z,14.13
2023-04-21T06:08:43.952Z,13.75
2023-04-21T06:11:10.260Z,13.95
2023-04-21T06:13:38.587Z,17.98
2023-04-21T06:16:05.998Z,23.73
2023-04-21T06:18:32.352Z,24.43
2023-04-21T06:20:58.657Z,22.35
2023-04-21T06:23:25.025Z,23.33
2023-04-21T06:26:01.294Z,22.20
2023-04-21T06:28:27.588Z,21.95
2023-04-21T06:30:53.943Z,23.30
2023-04-21T06:33:20.268Z,20.08
2023-04-21T06:35:46.572Z,23.27
2023-04-21T06:38:12.887Z,23.25
2023-04-21T06:40:39.184Z,70.22
2023-04-21T06:43:05.504Z,57.88
2023-04-21T06:45:31.887Z,81.60
2023-04-21T06:47:58.351Z,150.55
2023-04-21T06:50:24.710Z,34.00
2023-04-21T06:52:51.112Z,217.68
2023-04-21T06:55:17.432Z,196.70
2023-04-21T06:57:43.798Z,210.73
2023-04-21T07:00:10.470Z,133.95
2023-04-21T07:02:36.923Z,147.05
2023-04-21T07:05:03.572Z,126.20
2023-04-21T07:07:29.988Z,90.85
2023-04-21T07:09:56.307Z,88.50
2023-04-21T07:12:22.604Z,100.05
2023-04-21T07:14:48.934Z,89.68
2023-04-21T07:17:15.243Z,68.00
2023-04-21T07:19:41.565Z,104.43
2023-04-21T07:22:08.006Z,69.82
2023-04-21T07:24:35.473Z,112.50
2023-04-21T07:27:02.631Z,115.90
2023-04-21T07:29:29.404Z,77.13
2023-04-21T07:31:56.199Z,110.68
2023-04-21T07:34:22.632Z,95.88
2023-04-21T07:36:48.936Z,80.90
2023-04-21T07:39:15.228Z,87.10
2023-04-21T07:41:41.523Z,48.75
2023-04-21T07:44:07.848Z,119.20
2023-04-21T07:46:34.240Z,106.50
2023-04-21T07:49:03.595Z,56.75
2023-04-21T07:51:30.328Z,122.03
2023-04-21T07:53:56.661Z,105.25
2023-04-21T07:56:23.054Z,82.47
2023-04-21T07:58:49.371Z,92.03
2023-04-21T08:01:15.669Z,68.60
2023-04-21T08:03:42.258Z,76.70
2023-04-21T08:06:09.210Z,24.85
2023-04-21T08:08:35.664Z,15.80
2023-04-21T08:11:02.293Z,35.72
2023-04-21T08:13:28.947Z,11.93
2023-04-21T08:15:55.326Z,14.55
2023-04-21T08:18:23.655Z,12.52
2023-04-21T08:20:50.176Z,16.33
2023-04-21T08:23:16.602Z,14.45
2023-04-21T08:25:42.981Z,14.52
2023-04-21T08:28:09.365Z,16.38
2023-04-21T08:30:35.796Z,13.02
2023-04-21T08:33:02.162Z,13.80
2023-04-21T08:35:28.559Z,13.43
2023-04-21T08:37:54.868Z,14.15
2023-04-21T08:40:21.256Z,13.40
2023-04-21T08:42:48.388Z,62.15
2023-04-21T08:45:14.762Z,46.60
2023-04-21T08:47:41.654Z,45.72
2023-04-21T08:50:11.851Z,46.72
2023-04-21T08:52:38.517Z,49.63
2023-04-21T08:55:07.421Z,59.88
2023-04-21T08:57:34.078Z,44.85
2023-04-21T09:00:00.399Z,54.33
2023-04-21T09:02:27.068Z,67.78
2023-04-21T09:04:55.711Z,51.55
2023-04-21T09:07:35.952Z,39.65
2023-04-21T09:10:03.204Z,37.53
2023-04-21T09:12:29.807Z,59.25
2023-04-21T09:14:58.038Z,61.10
2023-04-21T09:17:28.601Z,36.28
2023-04-21T09:19:55.158Z,72.75
2023-04-21T09:22:26.816Z,41.40
2023-04-21T09:25:02.079Z,33.30
2023-04-21T09:29:54.725Z,25.83
2023-04-21T09:32:21.152Z,33.55
2023-04-21T09:34:47.545Z,29.42
2023-04-21T09:37:16.626Z,47.15
2023-04-21T09:39:53.047Z,44.97
2023-04-21T09:42:30.232Z,48.70
2023-04-21T09:45:10.907Z,46.92
2023-04-21T09:47:43.467Z,37.08
2023-04-21T09:50:12.829Z,59.58
2023-04-21T09:52:39.871Z,65.50
2023-04-21T09:55:11.343Z,59.70
2023-04-21T09:57:41.593Z,60.22
2023-04-21T10:00:09.780Z,52.17
2023-04-21T10:02:42.475Z,42.28
2023-04-21T10:05:09.873Z,49.97
2023-04-21T10:07:36.314Z,26.38
2023-04-21T10:10:02.781Z,57.28
2023-04-21T10:12:29.082Z,59.65
2023-04-21T10:14:56.038Z,61.15
2023-04-21T10:17:23.989Z,53.70
2023-04-21T10:19:51.550Z,50.03
2023-04-21T10:22:47.005Z,57.00
2023-04-21T10:25:14.264Z,35.90
2023-04-21T10:27:41.612Z,55.78
2023-04-21T10:30:23.773Z,90.20
2023-04-21T10:33:02.651Z,58.67
2023-04-21T10:35:49.020Z,25.63
2023-04-21T10:38:33.521Z,25.50
2023-04-21T10:41:29.136Z,34.40
2023-04-21T10:44:14.115Z,56.35
2023-04-21T10:46:40.484Z,31.70
2023-04-21T10:49:07.074Z,39.65
2023-04-21T10:51:33.592Z,54.70
2023-04-21T10:53:59.898Z,52.38
2023-04-21T10:56:26.222Z,52.22
2023-04-21T10:58:53.320Z,61.08
2023-04-21T11:01:19.771Z,39.03
2023-04-21T11:03:46.410Z,49.80
2023-04-21T11:06:17.941Z,56.33
2023-04-21T11:08:56.866Z,67.90
2023-04-21T11:11:24.209Z,42.65
2023-04-21T11:13:52.515Z,73.60
2023-04-21T11:16:19.943Z,73.35
2023-04-21T11:18:46.377Z,115.00
2023-04-21T11:21:17.767Z,57.85
2023-04-21T11:23:50.342Z,34.08
2023-04-21T11:26:17.102Z,34.88
2023-04-21T11:28:43.660Z,6.97
2023-04-21T11:31:10.508Z,33.40
2023-04-21T11:33:38.209Z,34.67
2023-04-21T11:36:05.842Z,30.85
2023-04-21T11:38:39.095Z,37.30
2023-04-21T11:41:05.470Z,51.83
2023-04-21T11:43:31.835Z,27.40
2023-04-21T11:46:14.147Z,27.90
2023-04-21T11:48:40.926Z,36.65
2023-04-21T11:51:14.087Z,37.42
2023-04-21T11:53:41.036Z,23.75
2023-04-21T11:56:07.430Z,33.58
2023-04-21T11:58:33.760Z,25.05
2023-04-21T12:01:06.950Z,28.70
2023-04-21T12:03:33.527Z,29.48
2023-04-21T12:06:00.224Z,43.83
2023-04-21T12:08:30.781Z,57.35
2023-04-21T12:10:59.227Z,48.50
2023-04-21T12:13:27.869Z,23.55
2023-04-21T12:15:54.350Z,23.40
2023-04-21T12:18:20.938Z,67.18
2023-04-21T12:20:51.331Z,35.47
2023-04-21T12:23:18.519Z,41.85
2023-04-21T12:25:46.882Z,35.17
2023-04-21T12:28:15.611Z,35.58
2023-04-21T12:30:42.628Z,48.28
2023-04-21T12:33:09.303Z,32.90
2023-04-21T12:35:35.959Z,52.50
2023-04-21T12:38:02.264Z,40.78
2023-04-21T12:40:28.627Z,48.72
2023-04-21T12:42:55.023Z,39.33
2023-04-21T12:45:21.534Z,38.03
2023-04-21T12:47:48.129Z,45.03
2023-04-21T12:50:14.809Z,26.45
2023-04-21T12:52:41.124Z,66.85
2023-04-21T12:55:07.596Z,51.17
2023-04-21T12:57:34.108Z,56.97
2023-04-21T13:00:00.682Z,52.63
2023-04-21T13:02:27.255Z,31.60
2023-04-21T13:04:53.905Z,75.22
2023-04-21T13:07:22.592Z,56.70
2023-04-21T13:09:48.946Z,41.67
2023-04-21T13:12:15.320Z,43.10
2023-04-21T13:14:41.615Z,37.40
2023-04-21T13:17:07.987Z,49.67
2023-04-21T13:19:34.772Z,47.17
2023-04-21T13:22:01.655Z,32.72
2023-04-21T13:24:28.011Z,62.25
2023-04-21T13:26:54.643Z,49.20
2023-04-21T13:29:20.952Z,69.88
2023-04-21T13:31:47.390Z,57.97
2023-04-21T13:34:13.774Z,17.98
2023-04-21T13:36:40.875Z,89.68
2023-04-21T13:39:10.955Z,74.00
2023-04-21T13:41:37.287Z,47.10
2023-04-21T13:44:03.661Z,65.55
2023-04-21T13:46:30.092Z,80.20
2023-04-21T13:48:56.825Z,49.33
2023-04-21T13:51:23.495Z,56.17
2023-04-21T13:53:49.900Z,12.32
2023-04-21T13:56:16.856Z,60.88
2023-04-21T13:58:43.308Z,54.28
2023-04-21T14:01:09.628Z,56.38
2023-04-21T14:03:36.116Z,46.97
2023-04-21T14:06:02.755Z,61.45
2023-04-21T14:08:29.070Z,86.85
2023-04-21T14:10:56.728Z,100.80
2023-04-21T14:13:34.870Z,99.82
2023-04-21T14:16:04.183Z,76.00
2023-04-21T14:18:30.580Z,39.10
2023-04-21T14:20:57.250Z,105.30
2023-04-21T14:23:23.590Z,76.20
2023-04-21T14:25:50.003Z,97.63
2023-04-21T14:28:16.399Z,94.47
2023-04-21T14:30:43.128Z,59.97
2023-04-21T14:33:09.870Z,59.80
2023-04-21T14:35:39.120Z,43.40
2023-04-21T14:38:05.475Z,75.88
2023-04-21T14:40:32.013Z,74.80
2023-04-21T14:42:58.372Z,71.38
2023-04-21T14:45:24.816Z,61.65
2023-04-21T14:47:51.219Z,37.15
2023-04-21T14:50:17.648Z,54.03
2023-04-21T14:52:44.052Z,18.95
2023-04-21T14:55:10.852Z,48.05
2023-04-21T14:57:37.244Z,47.75
2023-04-21T15:00:03.721Z,61.67
2023-04-21T15:02:30.859Z,54.92
2023-04-21T15:04:57.777Z,53.17
2023-04-21T15:07:25.141Z,38.20
2023-04-21T15:09:51.738Z,40.58
2023-04-21T15:12:18.113Z,40.70
2023-04-21T15:14:44.594Z,35.80
2023-04-21T15:17:11.070Z,37.47
2023-04-21T15:19:37.715Z,36.85
2023-04-21T15:22:04.920Z,29.92
2023-04-21T15:24:31.330Z,36.63
2023-04-21T15:26:57.623Z,26.70
2023-04-21T15:29:24.095Z,30.08
2023-04-21T15:31:50.448Z,25.85
2023-04-21T15:34:16.747Z,26.70
2023-04-21T15:36:43.049Z,33.08
2023-04-21T15:39:13.719Z,32.47
2023-04-21T15:41:40.422Z,32.92
2023-04-21T15:44:06.769Z,34.00
2023-04-21T15:46:34.568Z,27.45
2023-04-21T15:49:01.084Z,29.42
2023-04-21T15:51:28.129Z,31.95
2023-04-21T15:53:54.500Z,34.45
2023-04-21T15:56:20.942Z,35.30
2023-04-21T15:58:47.496Z,24.83
2023-04-21T16:01:13.971Z,32.47
2023-04-21T16:03:40.574Z,33.72
2023-04-21T16:06:07.264Z,35.60
2023-04-21T16:08:33.832Z,34.30
2023-04-21T16:11:00.439Z,37.03
2023-04-21T16:13:26.985Z,39.25
2023-04-21T16:15:53.435Z,41.00
2023-04-21T16:18:19.894Z,33.00
2023-04-21T16:20:46.560Z,38.67
2023-04-21T16:23:13.058Z,36.03
2023-04-21T16:25:39.473Z,43.63
2023-04-21T16:28:06.593Z,38.45
2023-04-21T16:30:34.927Z,35.28
2023-04-21T16:33:01.416Z,21.65
2023-04-21T16:35:27.851Z,23.40
2023-04-21T16:37:54.333Z,20.75
2023-04-21T16:40:22.199Z,24.15
2023-04-21T16:42:49.060Z,28.02
2023-04-21T16:45:15.499Z,29.77
2023-04-21T16:47:42.476Z,33.25
2023-04-21T16:50:09.608Z,35.83
2023-04-21T16:52:36.072Z,35.15
2023-04-21T16:55:02.476Z,34.67
2023-04-21T16:57:29.735Z,38.05
2023-04-21T16:59:56.193Z,30.05
2023-04-21T17:02:22.759Z,40.22
2023-04-21T17:04:49.183Z,35.63
2023-04-21T17:07:15.957Z,39.03
2023-04-21T17:09:42.251Z,16.30
2023-04-21T17:12:09.348Z,25.67
2023-04-21T17:14:36.968Z,21.88
2023-04-21T17:17:03.570Z,22.40
2023-04-21T17:19:29.971Z,24.23
2023-04-21T17:21:56.273Z,21.92
2023-04-21T17:24:22.601Z,23.98
2023-04-21T17:26:48.930Z,19.08
2023-04-21T17:29:15.283Z,19.08
2023-04-21T17:31:41.659Z,20.45
2023-04-21T17:34:08.033Z,15.82
2023-04-21T17:36:34.461Z,21.30
2023-04-21T17:39:00.758Z,17.13
2023-04-21T17:41:27.143Z,12.82
2023-04-21T17:43:54.931Z,14.43
2023-04-21T17:46:24.185Z,22.88
2023-04-21T17:48:51.421Z,6.25
2023-04-21T17:51:19.212Z,13.75
2023-04-21T17:53:46.390Z,34.30
2023-04-21T17:56:14.213Z,19.52
2023-04-21T17:58:41.396Z,28.42
2023-04-21T18:01:07.926Z,27.17
2023-04-21T18:03:36.163Z,45.08
2023-04-21T18:06:02.695Z,62.20
2023-04-21T18:08:29.007Z,70.00
2023-04-21T18:10:55.586Z,85.55
2023-04-21T18:13:21.888Z,68.38
2023-04-21T18:15:48.299Z,73.03
2023-04-21T18:18:14.616Z,75.70
2023-04-21T18:20:41.439Z,73.85
2023-04-21T18:23:08.249Z,98.03
2023-04-21T18:28:07.353Z,75.45
2023-04-21T18:30:33.851Z,108.35
2023-04-21T18:33:00.413Z,165.60
2023-04-21T18:35:26.972Z,127.53
2023-04-21T18:37:53.291Z,200.10
2023-04-21T18:40:19.648Z,128.32
2023-04-21T18:42:46.599Z,114.50
2023-04-21T18:45:12.923Z,158.48
2023-04-21T18:47:40.279Z,191.48
2023-04-21T18:50:07.782Z,216.98
2023-04-21T18:52:34.112Z,203.25
2023-04-21T18:55:00.539Z,236.35
2023-04-21T18:57:27.798Z,214.70
2023-04-21T18:59:54.391Z,183.88
2023-04-21T19:02:20.982Z,156.35
2023-04-21T19:04:47.596Z,97.10
2023-04-21T19:07:15.721Z,33.70
2023-04-21T19:09:42.055Z,50.55
2023-04-21T19:12:08.420Z,49.88
2023-04-21T19:14:46.158Z,51.65
2023-04-21T19:17:13.642Z,51.55
2023-04-21T19:19:40.357Z,48.25
2023-04-21T19:22:07.196Z,49.10
2023-04-21T19:24:33.658Z,42.17
2023-04-21T19:27:02.381Z,46.85
2023-04-21T19:29:31.331Z,126.32
2023-04-21T19:31:58.312Z,119.15
2023-04-21T19:34:24.699Z,128.07
2023-04-21T19:36:52.754Z,110.07
2023-04-21T19:39:19.150Z,107.47
2023-04-21T19:41:45.610Z,122.68
2023-04-21T19:44:11.919Z,125.57
2023-04-21T19:46:40.957Z,121.15
2023-04-21T19:49:07.390Z,104.68
2023-04-21T19:51:34.098Z,8.02
2023-04-21T19:54:10.735Z,100.63
2023-04-21T19:56:38.333Z,88.30
2023-04-21T19:59:05.575Z,92.68
2023-04-21T20:01:32.604Z,96.40
2023-04-21T20:03:59.776Z,102.85
2023-04-21T20:06:26.984Z,103.20
2023-04-21T20:08:53.376Z,84.50
2023-04-21T20:11:19.736Z,98.07
2023-04-21T20:13:46.283Z,104.30
2023-04-21T20:16:12.978Z,119.32
2023-04-21T20:18:39.802Z,81.57
2023-04-21T20:21:08.517Z,88.82
2023-04-21T20:23:36.405Z,109.30
2023-04-21T20:26:02.781Z,99.35
2023-04-21T20:28:29.071Z,140.57
2023-04-21T20:30:56.887Z,132.85
2023-04-21T20:33:23.249Z,159.18
2023-04-21T20:35:49.800Z,155.73
2023-04-21T20:38:16.455Z,134.43
2023-04-21T20:40:43.006Z,117.28
2023-04-21T20:43:10.389Z,112.93
2023-04-21T20:45:38.778Z,116.65
2023-04-21T20:48:05.615Z,133.40
2023-04-21T20:50:31.968Z,110.22
2023-04-21T20:52:58.321Z,114.70
2023-04-21T20:55:24.747Z,136.18
2023-04-21T20:57:51.061Z,132.20
2023-04-21T21:00:17.454Z,115.68
2023-04-21T21:02:44.228Z,157.48
2023-04-21T21:05:10.878Z,103.22
2023-04-21T21:07:37.265Z,83.88
2023-04-21T21:10:04.575Z,106.00
2023-04-21T21:12:30.931Z,102.32
2023-04-21T21:14:57.235Z,107.05
2023-04-21T21:17:23.626Z,81.28
2023-04-21T21:19:50.031Z,117.45
2023-04-21T21:22:16.368Z,98.75
2023-04-21T21:24:42.971Z,93.07
2023-04-21T21:27:09.346Z,99.38
2023-04-21T21:29:35.694Z,106.07
2023-04-21T21:32:02.122Z,131.73
2023-04-21T21:34:28.536Z,92.43
2023-04-21T21:36:54.851Z,99.57
2023-04-21T21:39:21.297Z,146.82
2023-04-21T21:41:47.613Z,91.18
2023-04-21T21:44:13.912Z,110.82
2023-04-21T21:46:40.436Z,105.00
2023-04-21T21:49:06.782Z,115.43
2023-04-21T21:51:33.085Z,100.80
2023-04-21T21:53:59.387Z,79.25
2023-04-21T21:56:25.945Z,106.97
2023-04-21T21:58:52.288Z,117.25
2023-04-21T22:01:18.736Z,133.25
2023-04-21T22:03:45.263Z,85.88
2023-04-21T22:06:12.908Z,96.45
2023-04-21T22:08:40.035Z,101.70
2023-04-21T22:11:06.365Z,104.75
2023-04-21T22:13:32.737Z,87.75
2023-04-21T22:15:59.129Z,100.63
2023-04-21T22:18:25.536Z,74.85
2023-04-21T22:20:51.839Z,64.10
2023-04-21T22:23:19.738Z,71.78
2023-04-21T22:25:46.068Z,40.28
2023-04-21T22:28:12.616Z,46.95
2023-04-21T22:30:38.957Z,45.97
2023-04-21T22:33:05.443Z,23.90
2023-04-21T22:35:31.903Z,64.40
2023-04-21T22:37:58.209Z,63.55
2023-04-21T22:40:24.534Z,28.55
2023-04-21T22:42:50.921Z,53.63
2023-04-21T22:45:17.274Z,16.30
2023-04-21T22:47:43.613Z,28.13
2023-04-21T22:50:10.270Z,21.20
2023-04-21T22:52:36.681Z,25.98
2023-04-21T22:55:03.858Z,32.53
2023-04-21T22:57:30.315Z,24.05
2023-04-21T22:59:56.597Z,26.17
2023-04-21T23:02:23.054Z,27.50
2023-04-21T23:04:49.447Z,29.02
2023-04-21T23:07:15.757Z,19.83
2023-04-21T23:09:42.157Z,33.97
2023-04-21T23:12:08.608Z,18.20
2023-04-21T23:14:34.967Z,19.75
2023-04-21T23:17:01.387Z,27.35
2023-04-21T23:19:27.723Z,18.45
2023-04-21T23:21:54.080Z,21.63
2023-04-21T23:24:20.500Z,22.38
2023-04-21T23:26:46.828Z,19.30
2023-04-21T23:29:13.195Z,20.05
2023-04-21T23:31:39.645Z,14.88
2023-04-21T23:34:06.192Z,16.95
2023-04-21T23:36:32.482Z,17.73
2023-04-21T23:38:58.810Z,13.77
2023-04-21T23:41:25.324Z,29.87
2023-04-21T23:43:51.669Z,16.35
2023-04-21T23:46:18.008Z,11.00
2023-04-21T23:48:44.360Z,16.55
2023-04-21T23:51:10.719Z,17.70
2023-04-21T23:53:37.092Z,20.30
2023-04-21T23:56:03.386Z,16.27
2023-04-21T23:58:29.694Z,9.63
